sensor_id;sensor_type;location;lat;lon;timestamp;temperature;humidity
28460;DHT22;32528;45.712;9.192;2023-04-24T00:00:06;15.10;99.90
28460;DHT22;32528;45.712;9.192;2023-04-24T00:02:09;15.10;99.90
28460;DHT22;32528;45.712;9.192;2023-04-24T00:04:11;15.10;99.90
28460;DHT22;32528;45.712;9.192;2023-04-24T00:06:14;15.20;99.90
28460;DHT22;32528;45.712;9.192;2023-04-24T00:08:17;15.10;99.90
28460;DHT22;32528;45.712;9.192;2023-04-24T00:10:18;15.10;99.90
28460;DHT22;32528;45.712;9.192;2023-04-24T00:12:19;15.00;99.90
28460;DHT22;32528;45.712;9.192;2023-04-24T00:14:20;15.00;99.90
28460;DHT22;32528;45.712;9.192;2023-04-24T00:16:22;14.90;99.90
28460;DHT22;32528;45.712;9.192;2023-04-24T00:18:22;14.80;99.90
28460;DHT22;32528;45.712;9.192;2023-04-24T00:20:23;14.60;99.90
28460;DHT22;32528;45.712;9.192;2023-04-24T00:22:25;14.70;99.90
28460;DHT22;32528;45.712;9.192;2023-04-24T00:24:26;14.70;99.90
28460;DHT22;32528;45.712;9.192;2023-04-24T00:26:27;14.60;99.90
28460;DHT22;32528;45.712;9.192;2023-04-24T00:28:28;14.60;99.90
28460;DHT22;32528;45.712;9.192;2023-04-24T00:30:28;14.50;99.90
28460;DHT22;32528;45.712;9.192;2023-04-24T00:32:29;14.40;99.90
28460;DHT22;32528;45.712;9.192;2023-04-24T00:34:30;14.50;99.90
28460;DHT22;32528;45.712;9.192;2023-04-24T00:36:32;14.40;99.90
28460;DHT22;32528;45.712;9.192;2023-04-24T00:38:33;14.40;99.90
28460;DHT22;32528;45.712;9.192;2023-04-24T00:40:34;14.40;99.90
28460;DHT22;32528;45.712;9.192;2023-04-24T00:42:35;14.50;99.90
28460;DHT22;32528;45.712;9.192;2023-04-24T00:44:38;14.40;99.90
28460;DHT22;32528;45.712;9.192;2023-04-24T00:46:40;14.40;99.90
28460;DHT22;32528;45.712;9.192;2023-04-24T00:48:41;14.40;99.90
28460;DHT22;32528;45.712;9.192;2023-04-24T00:50:42;14.30;99.90
28460;DHT22;32528;45.712;9.192;2023-04-24T00:52:42;14.20;99.90
28460;DHT22;32528;45.712;9.192;2023-04-24T00:54:44;14.10;99.90
28460;DHT22;32528;45.712;9.192;2023-04-24T00:56:48;14.10;99.90
28460;DHT22;32528;45.712;9.192;2023-04-24T00:58:49;14.10;99.90
28460;DHT22;32528;45.712;9.192;2023-04-24T01:00:52;14.00;99.90
28460;DHT22;32528;45.712;9.192;2023-04-24T01:02:53;14.00;99.90
28460;DHT22;32528;45.712;9.192;2023-04-24T01:04:54;14.00;99.90
28460;DHT22;32528;45.712;9.192;2023-04-24T01:06:55;14.00;99.90
28460;DHT22;32528;45.712;9.192;2023-04-24T01:08:58;13.90;99.90
28460;DHT22;32528;45.712;9.192;2023-04-24T01:11:00;13.90;99.90
28460;DHT22;32528;45.712;9.192;2023-04-24T01:13:03;14.00;99.90
28460;DHT22;32528;45.712;9.192;2023-04-24T01:15:04;13.90;99.90
28460;DHT22;32528;45.712;9.192;2023-04-24T01:17:06;13.90;99.90
28460;DHT22;32528;45.712;9.192;2023-04-24T01:19:07;13.90;99.90
28460;DHT22;32528;45.712;9.192;2023-04-24T01:21:11;13.90;99.90
28460;DHT22;32528;45.712;9.192;2023-04-24T01:23:13;14.00;99.90
28460;DHT22;32528;45.712;9.192;2023-04-24T01:25:14;14.00;99.90
28460;DHT22;32528;45.712;9.192;2023-04-24T01:27:15;14.00;99.90
28460;DHT22;32528;45.712;9.192;2023-04-24T01:29:17;14.00;99.90
28460;DHT22;32528;45.712;9.192;2023-04-24T01:31:18;13.90;99.90
28460;DHT22;32528;45.712;9.192;2023-04-24T01:33:21;13.90;99.90
28460;DHT22;32528;45.712;9.192;2023-04-24T01:35:22;14.00;99.90
28460;DHT22;32528;45.712;9.192;2023-04-24T01:37:22;14.00;99.90
28460;DHT22;32528;45.712;9.192;2023-04-24T01:39:23;14.00;99.90
28460;DHT22;32528;45.712;9.192;2023-04-24T01:41:28;14.00;99.90
28460;DHT22;32528;45.712;9.192;2023-04-24T01:43:30;14.00;99.90
28460;DHT22;32528;45.712;9.192;2023-04-24T01:45:32;14.00;99.90
28460;DHT22;32528;45.712;9.192;2023-04-24T01:47:33;14.00;99.90
28460;DHT22;32528;45.712;9.192;2023-04-24T01:49:34;14.00;99.90
28460;DHT22;32528;45.712;9.192;2023-04-24T01:51:34;14.00;99.90
28460;DHT22;32528;45.712;9.192;2023-04-24T01:53:37;14.00;99.90
28460;DHT22;32528;45.712;9.192;2023-04-24T01:55:38;13.90;99.90
28460;DHT22;32528;45.712;9.192;2023-04-24T01:57:39;13.90;99.90
28460;DHT22;32528;45.712;9.192;2023-04-24T01:59:40;13.80;99.90
28460;DHT22;32528;45.712;9.192;2023-04-24T02:01:41;13.70;99.90
28460;DHT22;32528;45.712;9.192;2023-04-24T02:03:42;13.80;99.90
28460;DHT22;32528;45.712;9.192;2023-04-24T02:05:44;13.70;99.90
28460;DHT22;32528;45.712;9.192;2023-04-24T02:07:45;13.70;99.90
28460;DHT22;32528;45.712;9.192;2023-04-24T02:09:46;13.70;99.90
28460;DHT22;32528;45.712;9.192;2023-04-24T02:11:47;13.70;99.90
28460;DHT22;32528;45.712;9.192;2023-04-24T02:13:47;13.70;99.90
28460;DHT22;32528;45.712;9.192;2023-04-24T02:15:49;13.70;99.90
28460;DHT22;32528;45.712;9.192;2023-04-24T02:17:49;13.70;99.90
28460;DHT22;32528;45.712;9.192;2023-04-24T02:19:50;13.60;99.90
28460;DHT22;32528;45.712;9.192;2023-04-24T02:21:51;13.50;99.90
28460;DHT22;32528;45.712;9.192;2023-04-24T02:23:52;13.40;99.90
28460;DHT22;32528;45.712;9.192;2023-04-24T02:25:53;13.40;99.90
28460;DHT22;32528;45.712;9.192;2023-04-24T02:27:53;13.30;99.90
28460;DHT22;32528;45.712;9.192;2023-04-24T02:29:54;13.20;99.90
28460;DHT22;32528;45.712;9.192;2023-04-24T02:31:55;13.20;99.90
28460;DHT22;32528;45.712;9.192;2023-04-24T02:33:56;13.10;99.90
28460;DHT22;32528;45.712;9.192;2023-04-24T02:35:57;13.00;99.90
28460;DHT22;32528;45.712;9.192;2023-04-24T02:37:57;13.00;99.90
28460;DHT22;32528;45.712;9.192;2023-04-24T02:39:58;13.00;99.90
28460;DHT22;32528;45.712;9.192;2023-04-24T02:41:59;12.90;99.90
28460;DHT22;32528;45.712;9.192;2023-04-24T02:44:00;12.90;99.90
28460;DHT22;32528;45.712;9.192;2023-04-24T02:46:01;12.90;99.90
28460;DHT22;32528;45.712;9.192;2023-04-24T02:48:02;12.80;99.90
28460;DHT22;32528;45.712;9.192;2023-04-24T02:50:04;12.90;99.90
28460;DHT22;32528;45.712;9.192;2023-04-24T02:52:05;12.80;99.90
28460;DHT22;32528;45.712;9.192;2023-04-24T02:54:05;12.80;99.90
28460;DHT22;32528;45.712;9.192;2023-04-24T02:56:06;12.80;99.90
28460;DHT22;32528;45.712;9.192;2023-04-24T02:58:07;12.70;99.90
28460;DHT22;32528;45.712;9.192;2023-04-24T03:00:08;12.70;99.90
28460;DHT22;32528;45.712;9.192;2023-04-24T03:02:09;12.60;99.90
28460;DHT22;32528;45.712;9.192;2023-04-24T03:04:11;12.60;99.90
28460;DHT22;32528;45.712;9.192;2023-04-24T03:06:12;12.50;99.90
28460;DHT22;32528;45.712;9.192;2023-04-24T03:08:12;12.40;99.90
28460;DHT22;32528;45.712;9.192;2023-04-24T03:10:15;12.40;99.90
28460;DHT22;32528;45.712;9.192;2023-04-24T03:12:16;12.30;99.90
28460;DHT22;32528;45.712;9.192;2023-04-24T03:14:18;12.20;99.90
28460;DHT22;32528;45.712;9.192;2023-04-24T03:16:19;12.20;99.90
28460;DHT22;32528;45.712;9.192;2023-04-24T03:18:21;12.10;99.90
28460;DHT22;32528;45.712;9.192;2023-04-24T03:20:23;12.10;99.90
28460;DHT22;32528;45.712;9.192;2023-04-24T03:22:24;12.10;99.90
28460;DHT22;32528;45.712;9.192;2023-04-24T03:24:26;12.10;99.90
28460;DHT22;32528;45.712;9.192;2023-04-24T03:26:29;12.10;99.90
28460;DHT22;32528;45.712;9.192;2023-04-24T03:28:43;12.10;99.90
28460;DHT22;32528;45.712;9.192;2023-04-24T03:30:43;12.10;99.90
28460;DHT22;32528;45.712;9.192;2023-04-24T03:32:46;12.00;99.90
28460;DHT22;32528;45.712;9.192;2023-04-24T03:34:49;12.00;99.90
28460;DHT22;32528;45.712;9.192;2023-04-24T03:36:51;11.90;99.90
28460;DHT22;32528;45.712;9.192;2023-04-24T03:38:53;11.90;99.90
28460;DHT22;32528;45.712;9.192;2023-04-24T03:40:58;11.80;99.90
28460;DHT22;32528;45.712;9.192;2023-04-24T03:43:15;11.80;99.90
28460;DHT22;32528;45.712;9.192;2023-04-24T03:45:16;11.80;99.90
28460;DHT22;32528;45.712;9.192;2023-04-24T03:47:21;11.80;99.90
28460;DHT22;32528;45.712;9.192;2023-04-24T03:49:24;11.70;99.90
28460;DHT22;32528;45.712;9.192;2023-04-24T03:51:25;11.80;99.90
28460;DHT22;32528;45.712;9.192;2023-04-24T03:53:34;11.70;99.90
28460;DHT22;32528;45.712;9.192;2023-04-24T03:55:35;11.70;99.90
28460;DHT22;32528;45.712;9.192;2023-04-24T03:57:37;11.60;99.90
28460;DHT22;32528;45.712;9.192;2023-04-24T03:59:50;11.80;99.90
28460;DHT22;32528;45.712;9.192;2023-04-24T04:01:53;12.00;99.90
28460;DHT22;32528;45.712;9.192;2023-04-24T04:03:55;12.10;99.90
28460;DHT22;32528;45.712;9.192;2023-04-24T04:05:58;12.10;99.90
28460;DHT22;32528;45.712;9.192;2023-04-24T04:07:59;12.10;99.90
28460;DHT22;32528;45.712;9.192;2023-04-24T04:10:00;12.20;99.90
28460;DHT22;32528;45.712;9.192;2023-04-24T04:12:00;12.20;99.90
28460;DHT22;32528;45.712;9.192;2023-04-24T04:14:03;12.30;99.90
28460;DHT22;32528;45.712;9.192;2023-04-24T04:16:05;12.30;99.90
28460;DHT22;32528;45.712;9.192;2023-04-24T04:18:06;12.40;99.90
28460;DHT22;32528;45.712;9.192;2023-04-24T04:20:07;12.30;99.90
28460;DHT22;32528;45.712;9.192;2023-04-24T04:22:11;12.30;99.90
28460;DHT22;32528;45.712;9.192;2023-04-24T04:24:19;12.40;99.90
28460;DHT22;32528;45.712;9.192;2023-04-24T04:26:22;12.40;99.90
28460;DHT22;32528;45.712;9.192;2023-04-24T04:28:47;12.30;99.90
28460;DHT22;32528;45.712;9.192;2023-04-24T04:30:48;12.30;99.90
28460;DHT22;32528;45.712;9.192;2023-04-24T04:32:50;12.30;99.90
28460;DHT22;32528;45.712;9.192;2023-04-24T04:34:51;12.30;99.90
28460;DHT22;32528;45.712;9.192;2023-04-24T04:36:54;12.30;99.90
28460;DHT22;32528;45.712;9.192;2023-04-24T04:39:15;12.30;99.90
28460;DHT22;32528;45.712;9.192;2023-04-24T04:41:27;12.30;99.90
28460;DHT22;32528;45.712;9.192;2023-04-24T04:43:30;12.30;99.90
28460;DHT22;32528;45.712;9.192;2023-04-24T04:45:31;12.30;99.90
28460;DHT22;32528;45.712;9.192;2023-04-24T04:47:51;12.30;99.90
28460;DHT22;32528;45.712;9.192;2023-04-24T04:49:53;12.30;99.90
28460;DHT22;32528;45.712;9.192;2023-04-24T04:51:57;12.30;99.90
28460;DHT22;32528;45.712;9.192;2023-04-24T04:54:00;12.30;99.90
28460;DHT22;32528;45.712;9.192;2023-04-24T04:56:01;12.30;99.90
28460;DHT22;32528;45.712;9.192;2023-04-24T04:58:08;12.30;99.90
28460;DHT22;32528;45.712;9.192;2023-04-24T05:00:10;12.40;99.90
28460;DHT22;32528;45.712;9.192;2023-04-24T05:02:20;12.40;99.90
28460;DHT22;32528;45.712;9.192;2023-04-24T05:04:21;12.50;99.90
28460;DHT22;32528;45.712;9.192;2023-04-24T05:06:21;12.50;99.90
28460;DHT22;32528;45.712;9.192;2023-04-24T05:08:23;12.50;99.90
28460;DHT22;32528;45.712;9.192;2023-04-24T05:10:24;12.60;99.90
28460;DHT22;32528;45.712;9.192;2023-04-24T05:12:27;12.60;99.90
28460;DHT22;32528;45.712;9.192;2023-04-24T05:14:28;12.60;99.90
28460;DHT22;32528;45.712;9.192;2023-04-24T05:16:29;12.60;99.90
28460;DHT22;32528;45.712;9.192;2023-04-24T05:18:31;12.60;99.90
28460;DHT22;32528;45.712;9.192;2023-04-24T05:20:34;12.50;99.90
28460;DHT22;32528;45.712;9.192;2023-04-24T05:22:35;12.60;99.90
28460;DHT22;32528;45.712;9.192;2023-04-24T05:24:38;12.60;99.90
28460;DHT22;32528;45.712;9.192;2023-04-24T05:26:58;12.70;99.90
28460;DHT22;32528;45.712;9.192;2023-04-24T05:29:04;12.80;99.90
28460;DHT22;32528;45.712;9.192;2023-04-24T05:31:05;12.80;99.90
28460;DHT22;32528;45.712;9.192;2023-04-24T05:33:07;12.80;99.90
28460;DHT22;32528;45.712;9.192;2023-04-24T05:35:09;12.90;99.90
28460;DHT22;32528;45.712;9.192;2023-04-24T05:37:11;12.90;99.90
28460;DHT22;32528;45.712;9.192;2023-04-24T05:39:12;13.00;99.90
28460;DHT22;32528;45.712;9.192;2023-04-24T05:41:12;13.00;99.90
28460;DHT22;32528;45.712;9.192;2023-04-24T05:43:13;13.10;99.90
28460;DHT22;32528;45.712;9.192;2023-04-24T05:45:15;13.20;99.90
28460;DHT22;32528;45.712;9.192;2023-04-24T05:47:17;13.20;99.90
28460;DHT22;32528;45.712;9.192;2023-04-24T05:49:18;13.30;99.90
28460;DHT22;32528;45.712;9.192;2023-04-24T05:51:20;13.40;99.90
28460;DHT22;32528;45.712;9.192;2023-04-24T05:53:21;13.60;99.90
28460;DHT22;32528;45.712;9.192;2023-04-24T05:55:22;13.70;99.90
28460;DHT22;32528;45.712;9.192;2023-04-24T05:57:23;13.70;99.90
28460;DHT22;32528;45.712;9.192;2023-04-24T05:59:29;13.80;99.90
28460;DHT22;32528;45.712;9.192;2023-04-24T06:01:31;13.80;99.90
28460;DHT22;32528;45.712;9.192;2023-04-24T06:03:42;13.90;99.90
28460;DHT22;32528;45.712;9.192;2023-04-24T06:05:43;14.00;99.90
28460;DHT22;32528;45.712;9.192;2023-04-24T06:07:44;14.20;99.90
28460;DHT22;32528;45.712;9.192;2023-04-24T06:09:46;14.20;99.90
28460;DHT22;32528;45.712;9.192;2023-04-24T06:11:49;14.30;99.90
28460;DHT22;32528;45.712;9.192;2023-04-24T06:13:57;14.40;99.90
28460;DHT22;32528;45.712;9.192;2023-04-24T06:16:13;14.40;99.90
28460;DHT22;32528;45.712;9.192;2023-04-24T06:18:17;14.50;99.40
28460;DHT22;32528;45.712;9.192;2023-04-24T06:20:18;14.60;99.20
28460;DHT22;32528;45.712;9.192;2023-04-24T06:22:20;14.60;98.70
28460;DHT22;32528;45.712;9.192;2023-04-24T06:24:21;14.70;98.30
28460;DHT22;32528;45.712;9.192;2023-04-24T06:26:21;14.80;98.20
28460;DHT22;32528;45.712;9.192;2023-04-24T06:28:25;15.00;98.20
28460;DHT22;32528;45.712;9.192;2023-04-24T06:30:26;15.00;97.80
28460;DHT22;32528;45.712;9.192;2023-04-24T06:32:29;15.10;97.30
28460;DHT22;32528;45.712;9.192;2023-04-24T06:34:31;15.10;97.00
28460;DHT22;32528;45.712;9.192;2023-04-24T06:36:34;15.20;97.20
28460;DHT22;32528;45.712;9.192;2023-04-24T06:38:36;15.30;97.10
28460;DHT22;32528;45.712;9.192;2023-04-24T06:40:37;15.50;96.30
28460;DHT22;32528;45.712;9.192;2023-04-24T06:42:37;15.50;95.80
28460;DHT22;32528;45.712;9.192;2023-04-24T06:44:43;15.50;95.80
28460;DHT22;32528;45.712;9.192;2023-04-24T06:46:45;15.60;95.40
28460;DHT22;32528;45.712;9.192;2023-04-24T06:48:46;15.70;95.00
28460;DHT22;32528;45.712;9.192;2023-04-24T06:50:46;15.70;94.60
28460;DHT22;32528;45.712;9.192;2023-04-24T06:52:47;15.90;94.80
28460;DHT22;32528;45.712;9.192;2023-04-24T06:54:48;15.90;94.60
28460;DHT22;32528;45.712;9.192;2023-04-24T06:56:49;16.00;94.30
28460;DHT22;32528;45.712;9.192;2023-04-24T06:58:52;16.00;93.40
28460;DHT22;32528;45.712;9.192;2023-04-24T07:00:52;16.00;93.20
28460;DHT22;32528;45.712;9.192;2023-04-24T07:02:54;16.00;93.00
28460;DHT22;32528;45.712;9.192;2023-04-24T07:04:55;16.00;93.40
28460;DHT22;32528;45.712;9.192;2023-04-24T07:06:58;16.10;93.60
28460;DHT22;32528;45.712;9.192;2023-04-24T07:08:59;16.20;93.10
28460;DHT22;32528;45.712;9.192;2023-04-24T07:11:00;16.20;92.80
28460;DHT22;32528;45.712;9.192;2023-04-24T07:13:01;16.30;92.20
28460;DHT22;32528;45.712;9.192;2023-04-24T07:15:02;16.30;91.90
28460;DHT22;32528;45.712;9.192;2023-04-24T07:17:04;16.30;91.70
28460;DHT22;32528;45.712;9.192;2023-04-24T07:19:06;16.40;91.80
28460;DHT22;32528;45.712;9.192;2023-04-24T07:21:07;16.40;91.40
28460;DHT22;32528;45.712;9.192;2023-04-24T07:23:08;16.50;91.60
28460;DHT22;32528;45.712;9.192;2023-04-24T07:25:09;16.50;91.10
28460;DHT22;32528;45.712;9.192;2023-04-24T07:27:10;16.60;91.20
28460;DHT22;32528;45.712;9.192;2023-04-24T07:29:12;16.70;91.40
28460;DHT22;32528;45.712;9.192;2023-04-24T07:31:13;16.70;90.90
28460;DHT22;32528;45.712;9.192;2023-04-24T07:33:13;16.70;91.60
28460;DHT22;32528;45.712;9.192;2023-04-24T07:35:15;16.80;91.20
28460;DHT22;32528;45.712;9.192;2023-04-24T07:37:16;16.80;91.30
28460;DHT22;32528;45.712;9.192;2023-04-24T07:39:18;16.70;90.60
28460;DHT22;32528;45.712;9.192;2023-04-24T07:41:18;16.60;90.40
28460;DHT22;32528;45.712;9.192;2023-04-24T07:43:20;16.60;90.70
28460;DHT22;32528;45.712;9.192;2023-04-24T07:45:21;16.70;90.70
28460;DHT22;32528;45.712;9.192;2023-04-24T07:47:23;16.80;90.50
28460;DHT22;32528;45.712;9.192;2023-04-24T07:49:24;16.80;90.70
28460;DHT22;32528;45.712;9.192;2023-04-24T07:51:25;16.80;90.80
28460;DHT22;32528;45.712;9.192;2023-04-24T07:53:27;16.80;90.90
28460;DHT22;32528;45.712;9.192;2023-04-24T07:55:28;16.90;91.20
28460;DHT22;32528;45.712;9.192;2023-04-24T07:57:29;16.90;91.00
28460;DHT22;32528;45.712;9.192;2023-04-24T07:59:30;17.00;90.40
28460;DHT22;32528;45.712;9.192;2023-04-24T08:01:30;17.00;90.40
28460;DHT22;32528;45.712;9.192;2023-04-24T08:03:31;16.90;90.90
28460;DHT22;32528;45.712;9.192;2023-04-24T08:05:32;16.80;91.00
28460;DHT22;32528;45.712;9.192;2023-04-24T08:07:33;16.80;90.80
28460;DHT22;32528;45.712;9.192;2023-04-24T08:09:34;16.80;90.60
28460;DHT22;32528;45.712;9.192;2023-04-24T08:11:34;16.80;91.00
28460;DHT22;32528;45.712;9.192;2023-04-24T08:13:35;16.80;91.40
28460;DHT22;32528;45.712;9.192;2023-04-24T08:15:36;16.90;90.60
28460;DHT22;32528;45.712;9.192;2023-04-24T08:17:37;17.00;90.40
28460;DHT22;32528;45.712;9.192;2023-04-24T08:19:37;17.10;90.90
28460;DHT22;32528;45.712;9.192;2023-04-24T08:21:38;17.00;90.80
28460;DHT22;32528;45.712;9.192;2023-04-24T08:23:39;16.90;90.30
28460;DHT22;32528;45.712;9.192;2023-04-24T08:25:40;17.00;90.60
28460;DHT22;32528;45.712;9.192;2023-04-24T08:27:41;17.20;90.80
28460;DHT22;32528;45.712;9.192;2023-04-24T08:29:42;17.30;91.00
28460;DHT22;32528;45.712;9.192;2023-04-24T08:31:43;17.40;91.30
28460;DHT22;32528;45.712;9.192;2023-04-24T08:33:43;17.20;91.30
28460;DHT22;32528;45.712;9.192;2023-04-24T08:35:46;17.20;90.70
28460;DHT22;32528;45.712;9.192;2023-04-24T08:37:47;17.30;90.60
28460;DHT22;32528;45.712;9.192;2023-04-24T08:39:47;17.40;90.90
28460;DHT22;32528;45.712;9.192;2023-04-24T08:41:48;17.50;90.60
28460;DHT22;32528;45.712;9.192;2023-04-24T08:43:49;17.50;91.00
28460;DHT22;32528;45.712;9.192;2023-04-24T08:45:52;17.40;90.80
28460;DHT22;32528;45.712;9.192;2023-04-24T08:47:53;17.30;91.10
28460;DHT22;32528;45.712;9.192;2023-04-24T08:49:55;17.30;90.90
28460;DHT22;32528;45.712;9.192;2023-04-24T08:51:56;17.30;90.90
28460;DHT22;32528;45.712;9.192;2023-04-24T08:53:56;17.10;90.70
28460;DHT22;32528;45.712;9.192;2023-04-24T08:55:57;17.10;91.10
28460;DHT22;32528;45.712;9.192;2023-04-24T08:57:59;17.00;91.20
28460;DHT22;32528;45.712;9.192;2023-04-24T09:00:01;17.00;90.70
28460;DHT22;32528;45.712;9.192;2023-04-24T09:02:02;17.00;90.00
28460;DHT22;32528;45.712;9.192;2023-04-24T09:04:03;17.00;90.20
28460;DHT22;32528;45.712;9.192;2023-04-24T09:06:04;17.10;90.60
28460;DHT22;32528;45.712;9.192;2023-04-24T09:08:06;17.10;91.00
28460;DHT22;32528;45.712;9.192;2023-04-24T09:10:07;17.10;88.50
28460;DHT22;32528;45.712;9.192;2023-04-24T09:12:08;17.10;86.10
28460;DHT22;32528;45.712;9.192;2023-04-24T09:14:10;17.20;84.70
28460;DHT22;32528;45.712;9.192;2023-04-24T09:16:14;17.20;85.60
28460;DHT22;32528;45.712;9.192;2023-04-24T09:18:15;17.30;87.30
28460;DHT22;32528;45.712;9.192;2023-04-24T09:20:16;17.40;87.80
28460;DHT22;32528;45.712;9.192;2023-04-24T09:22:16;17.40;87.70
28460;DHT22;32528;45.712;9.192;2023-04-24T09:24:20;17.40;88.00
28460;DHT22;32528;45.712;9.192;2023-04-24T09:26:25;17.40;88.10
28460;DHT22;32528;45.712;9.192;2023-04-24T09:28:30;17.30;87.90
28460;DHT22;32528;45.712;9.192;2023-04-24T09:30:31;17.30;88.40
28460;DHT22;32528;45.712;9.192;2023-04-24T09:32:32;17.40;89.00
28460;DHT22;32528;45.712;9.192;2023-04-24T09:34:33;17.40;88.20
28460;DHT22;32528;45.712;9.192;2023-04-24T09:36:34;17.40;88.00
28460;DHT22;32528;45.712;9.192;2023-04-24T09:38:37;17.50;89.00
28460;DHT22;32528;45.712;9.192;2023-04-24T09:40:38;17.60;87.20
28460;DHT22;32528;45.712;9.192;2023-04-24T09:42:43;17.60;87.80
28460;DHT22;32528;45.712;9.192;2023-04-24T09:44:45;17.60;87.20
28460;DHT22;32528;45.712;9.192;2023-04-24T09:46:53;17.70;87.90
28460;DHT22;32528;45.712;9.192;2023-04-24T09:48:55;17.70;88.80
28460;DHT22;32528;45.712;9.192;2023-04-24T09:50:56;17.80;89.20
28460;DHT22;32528;45.712;9.192;2023-04-24T09:52:57;17.80;87.00
28460;DHT22;32528;45.712;9.192;2023-04-24T09:54:58;17.90;86.00
28460;DHT22;32528;45.712;9.192;2023-04-24T09:56:59;17.90;82.20
28460;DHT22;32528;45.712;9.192;2023-04-24T09:59:06;17.80;81.80
28460;DHT22;32528;45.712;9.192;2023-04-24T10:01:07;17.90;81.30
28460;DHT22;32528;45.712;9.192;2023-04-24T10:03:08;18.00;82.30
28460;DHT22;32528;45.712;9.192;2023-04-24T10:05:09;18.10;83.50
28460;DHT22;32528;45.712;9.192;2023-04-24T10:07:11;18.10;82.90
28460;DHT22;32528;45.712;9.192;2023-04-24T10:09:12;18.10;81.60
28460;DHT22;32528;45.712;9.192;2023-04-24T10:11:14;18.20;82.30
28460;DHT22;32528;45.712;9.192;2023-04-24T10:13:15;18.30;84.40
28460;DHT22;32528;45.712;9.192;2023-04-24T10:15:16;18.40;87.10
28460;DHT22;32528;45.712;9.192;2023-04-24T10:17:20;18.50;85.30
28460;DHT22;32528;45.712;9.192;2023-04-24T10:19:22;18.50;82.50
28460;DHT22;32528;45.712;9.192;2023-04-24T10:21:26;18.50;84.30
28460;DHT22;32528;45.712;9.192;2023-04-24T10:23:27;18.50;84.90
28460;DHT22;32528;45.712;9.192;2023-04-24T10:25:29;18.50;85.40
28460;DHT22;32528;45.712;9.192;2023-04-24T10:27:31;18.50;84.70
28460;DHT22;32528;45.712;9.192;2023-04-24T10:29:32;18.60;85.10
28460;DHT22;32528;45.712;9.192;2023-04-24T10:31:35;18.60;84.40
28460;DHT22;32528;45.712;9.192;2023-04-24T10:33:36;18.70;85.70
28460;DHT22;32528;45.712;9.192;2023-04-24T10:35:39;18.80;86.60
28460;DHT22;32528;45.712;9.192;2023-04-24T10:37:46;18.80;84.50
28460;DHT22;32528;45.712;9.192;2023-04-24T10:39:48;18.70;83.90
28460;DHT22;32528;45.712;9.192;2023-04-24T10:41:51;18.80;87.80
28460;DHT22;32528;45.712;9.192;2023-04-24T10:44:11;18.80;86.70
28460;DHT22;32528;45.712;9.192;2023-04-24T10:46:16;19.00;86.90
28460;DHT22;32528;45.712;9.192;2023-04-24T10:48:19;19.10;85.00
28460;DHT22;32528;45.712;9.192;2023-04-24T10:50:28;19.00;86.30
28460;DHT22;32528;45.712;9.192;2023-04-24T10:52:45;19.10;86.10
28460;DHT22;32528;45.712;9.192;2023-04-24T10:54:47;19.10;84.30
28460;DHT22;32528;45.712;9.192;2023-04-24T10:56:47;19.10;85.50
28460;DHT22;32528;45.712;9.192;2023-04-24T10:58:52;19.20;83.40
28460;DHT22;32528;45.712;9.192;2023-04-24T11:00:57;19.20;82.20
28460;DHT22;32528;45.712;9.192;2023-04-24T11:02:58;19.30;83.20
28460;DHT22;32528;45.712;9.192;2023-04-24T11:04:58;19.30;82.40
28460;DHT22;32528;45.712;9.192;2023-04-24T11:07:03;19.40;82.20
28460;DHT22;32528;45.712;9.192;2023-04-24T11:09:08;19.40;81.20
28460;DHT22;32528;45.712;9.192;2023-04-24T11:11:11;19.40;81.60
28460;DHT22;32528;45.712;9.192;2023-04-24T11:13:15;19.50;81.20
28460;DHT22;32528;45.712;9.192;2023-04-24T11:15:16;19.50;80.30
28460;DHT22;32528;45.712;9.192;2023-04-24T11:19:29;19.40;78.70
28460;DHT22;32528;45.712;9.192;2023-04-24T11:21:31;19.50;79.50
28460;DHT22;32528;45.712;9.192;2023-04-24T11:23:35;19.60;78.20
28460;DHT22;32528;45.712;9.192;2023-04-24T11:25:36;19.60;79.00
28460;DHT22;32528;45.712;9.192;2023-04-24T11:27:40;19.70;78.90
28460;DHT22;32528;45.712;9.192;2023-04-24T11:31:57;19.70;77.10
28460;DHT22;32528;45.712;9.192;2023-04-24T11:34:14;19.80;77.20
28460;DHT22;32528;45.712;9.192;2023-04-24T11:36:15;19.90;75.10
28460;DHT22;32528;45.712;9.192;2023-04-24T11:38:15;19.80;74.50
28460;DHT22;32528;45.712;9.192;2023-04-24T11:40:19;20.00;73.80
28460;DHT22;32528;45.712;9.192;2023-04-24T11:42:21;19.90;75.10
28460;DHT22;32528;45.712;9.192;2023-04-24T11:44:23;19.90;77.20
28460;DHT22;32528;45.712;9.192;2023-04-24T11:46:30;20.00;75.60
28460;DHT22;32528;45.712;9.192;2023-04-24T11:48:34;20.10;73.10
28460;DHT22;32528;45.712;9.192;2023-04-24T11:50:36;20.20;73.10
28460;DHT22;32528;45.712;9.192;2023-04-24T11:52:37;20.30;73.30
28460;DHT22;32528;45.712;9.192;2023-04-24T11:54:47;20.30;74.40
28460;DHT22;32528;45.712;9.192;2023-04-24T11:56:48;20.30;73.80
28460;DHT22;32528;45.712;9.192;2023-04-24T11:58:51;20.40;76.20
28460;DHT22;32528;45.712;9.192;2023-04-24T12:00:55;20.40;72.50
28460;DHT22;32528;45.712;9.192;2023-04-24T12:03:03;20.60;74.70
28460;DHT22;32528;45.712;9.192;2023-04-24T12:05:04;20.80;77.70
28460;DHT22;32528;45.712;9.192;2023-04-24T12:07:05;20.70;73.10
28460;DHT22;32528;45.712;9.192;2023-04-24T12:09:06;20.60;70.70
28460;DHT22;32528;45.712;9.192;2023-04-24T12:11:08;20.60;70.80
28460;DHT22;32528;45.712;9.192;2023-04-24T12:13:09;20.70;70.40
28460;DHT22;32528;45.712;9.192;2023-04-24T12:15:11;20.70;70.30
28460;DHT22;32528;45.712;9.192;2023-04-24T12:17:12;20.70;70.40
28460;DHT22;32528;45.712;9.192;2023-04-24T12:19:17;20.90;71.70
28460;DHT22;32528;45.712;9.192;2023-04-24T12:21:19;21.10;72.90
28460;DHT22;32528;45.712;9.192;2023-04-24T12:23:33;21.20;68.70
28460;DHT22;32528;45.712;9.192;2023-04-24T12:25:34;21.20;69.50
28460;DHT22;32528;45.712;9.192;2023-04-24T12:27:35;21.10;68.40
28460;DHT22;32528;45.712;9.192;2023-04-24T12:29:36;21.10;67.30
28460;DHT22;32528;45.712;9.192;2023-04-24T12:31:37;21.20;68.50
28460;DHT22;32528;45.712;9.192;2023-04-24T12:33:37;21.30;72.00
28460;DHT22;32528;45.712;9.192;2023-04-24T12:35:39;21.30;68.90
28460;DHT22;32528;45.712;9.192;2023-04-24T12:37:42;21.40;70.40
28460;DHT22;32528;45.712;9.192;2023-04-24T12:42:03;21.50;71.90
28460;DHT22;32528;45.712;9.192;2023-04-24T12:44:09;21.50;69.10
28460;DHT22;32528;45.712;9.192;2023-04-24T12:46:11;21.50;67.10
28460;DHT22;32528;45.712;9.192;2023-04-24T12:48:11;21.60;68.50
28460;DHT22;32528;45.712;9.192;2023-04-24T12:50:14;21.80;70.70
28460;DHT22;32528;45.712;9.192;2023-04-24T12:52:15;21.80;65.60
28460;DHT22;32528;45.712;9.192;2023-04-24T12:54:16;22.00;68.90
28460;DHT22;32528;45.712;9.192;2023-04-24T12:56:16;21.90;67.10
28460;DHT22;32528;45.712;9.192;2023-04-24T12:58:18;21.90;66.80